Seguin, Texas
Current Conditions -  °F | °C
As of 5:51 PM on Thursday 27 Nov 2014 (Local Time) from KBAZ Reporting Station
Clear Clear  
Wind Chill: 59°   Ceiling: Unl
Heat Index: 59°   Visibility: 10mi
Dew Point: 33°   Wind: 5mph
Humidity: 38%   Direction: 60°ENE
Pressure: 30.39"   Gusts: NA
Location:  29.57°N, 97.96°W
Report Text: KBAZ 272351Z 06004KT 10SM CLR 15/01 A3039 RMK AO2 SLP288 T01500006 10194 20150 55003
Loading
Personal Weather Stations






























Interactive Weather Map New forecast layout! Learn more

10-Day Weather Forecast

Advertisements
Track Severe Weather on mobile